Time;durP1;ratioP1;P1;durP2;ratioP2;P2;SDS_P1;SDS_P2;PMS_P1;PMS_P2;Temp;Humidity;BMP_temperature;BMP_pressure;BME280_temperature;BME280_humidity;BME280_pressure;Samples;Min_cycle;Max_cycle;Signal;HPM_P1;HPM_P2
2023/10/23 00:00:56;;;;;;;12.32;1.35;;;;;;;16.37;61.38;99571.94;4403263;32;34153;-65
2023/10/23 00:03:24;;;;;;;2.70;1.45;;;;;;;16.43;61.09;99565.91;4390759;32;34996;-66
2023/10/23 00:05:51;;;;;;;1.27;0.93;;;;;;;16.45;60.94;99559.34;4404035;32;32873;-66
2023/10/23 00:08:19;;;;;;;1.62;1.00;;;;;;;16.49;60.51;99560.72;4404481;32;33568;-65
2023/10/23 00:10:47;;;;;;;1.55;0.95;;;;;;;16.36;60.62;99562.97;4404178;32;34724;-66
2023/10/23 00:13:14;;;;;;;8.60;4.18;;;;;;;16.01;61.38;99558.44;4400343;32;34116;-66
2023/10/23 00:15:42;;;;;;;11.48;5.82;;;;;;;15.68;62.08;99563.50;4403197;32;34823;-65
2023/10/23 00:18:10;;;;;;;5.55;1.73;;;;;;;15.86;61.70;99562.66;4405616;32;34017;-66
2023/10/23 00:20:37;;;;;;;1.62;1.02;;;;;;;16.07;60.64;99558.69;4404371;32;33572;-65
2023/10/23 00:23:05;;;;;;;1.37;0.60;;;;;;;15.72;61.32;99559.50;4406892;32;33820;-65
2023/10/23 00:25:34;;;;;;;1.60;0.75;;;;;;;15.77;61.44;99564.47;4406326;32;34334;-65
2023/10/23 00:28:01;;;;;;;12.23;1.87;;;;;;;15.92;60.76;99565.63;4402423;32;34548;-65
2023/10/23 00:30:33;;;;;;;1.52;0.93;;;;;;;15.83;61.18;99571.94;4390743;32;33834;-65
2023/10/23 00:33:01;;;;;;;0.77;0.70;;;;;;;15.54;62.13;99575.63;4403076;32;33931;-65
2023/10/23 00:35:29;;;;;;;1.33;0.70;;;;;;;15.59;62.09;99567.09;4404350;32;33487;-65
2023/10/23 00:37:56;;;;;;;0.68;0.68;;;;;;;15.60;61.94;99569.66;4405542;32;33975;-65
2023/10/23 00:40:24;;;;;;;1.35;0.80;;;;;;;15.63;61.91;99570.31;4405621;32;34161;-66
2023/10/23 00:42:52;;;;;;;0.68;0.68;;;;;;;15.50;62.21;99571.53;4405491;32;32746;-67
2023/10/23 00:45:20;;;;;;;1.48;0.82;;;;;;;15.41;62.58;99569.75;4405606;32;33270;-65
2023/10/23 00:47:48;;;;;;;1.15;0.60;;;;;;;15.56;62.11;99579.00;4405630;32;32306;-65
2023/10/23 00:50:16;;;;;;;1.27;0.57;;;;;;;15.50;62.32;99573.38;4391442;32;33794;-64
2023/10/23 00:52:44;;;;;;;1.45;0.73;;;;;;;15.61;61.82;99578.59;4402832;32;35856;-66
2023/10/23 00:55:12;;;;;;;3.92;1.60;;;;;;;15.67;61.34;99578.00;4405949;32;33704;-65
2023/10/23 00:57:39;;;;;;;1.60;1.05;;;;;;;15.78;61.01;99569.69;4405227;32;33492;-65
2023/10/23 01:00:08;;;;;;;3.75;2.25;;;;;;;15.84;60.57;99570.94;4404322;32;32682;-66
2023/10/23 01:02:36;;;;;;;5.45;1.55;;;;;;;15.78;60.82;99564.28;4385364;32;33932;-65
2023/10/23 01:05:04;;;;;;;3.20;2.12;;;;;;;15.83;61.10;99566.56;4392496;32;33723;-64
2023/10/23 01:07:32;;;;;;;5.05;1.77;;;;;;;15.92;60.77;99564.75;4404241;32;33835;-64
2023/10/23 01:10:00;;;;;;;1.45;1.15;;;;;;;15.54;61.53;99562.16;4404327;32;35021;-64
2023/10/23 01:12:28;;;;;;;3.40;1.15;;;;;;;15.63;61.43;99563.06;4405105;32;34003;-64
2023/10/23 01:14:55;;;;;;;1.85;1.08;;;;;;;15.71;60.86;99570.47;4405693;32;33167;-64
2023/10/23 01:17:23;;;;;;;0.90;0.68;;;;;;;15.70;60.53;99566.06;4406343;32;33800;-64
2023/10/23 01:19:51;;;;;;;2.55;1.05;;;;;;;15.73;60.42;99573.84;4407380;32;34968;-64
2023/10/23 01:22:19;;;;;;;1.95;0.62;;;;;;;15.77;60.23;99575.25;4406081;32;33998;-65
2023/10/23 01:24:47;;;;;;;1.60;0.75;;;;;;;15.45;61.57;99578.38;4407749;32;33444;-64
2023/10/23 01:27:15;;;;;;;0.50;0.50;;;;;;;15.60;60.92;99574.16;4404959;32;34984;-64
2023/10/23 01:29:43;;;;;;;0.73;0.60;;;;;;;15.61;60.71;99575.88;4406809;32;35166;-64
2023/10/23 01:32:10;;;;;;;1.15;0.98;;;;;;;15.52;60.83;99574.94;4405819;32;33651;-64
2023/10/23 01:34:38;;;;;;;1.05;0.70;;;;;;;15.03;62.46;99578.84;4406470;32;33251;-64
2023/10/23 01:37:06;;;;;;;0.73;0.50;;;;;;;15.30;61.11;99573.47;4405299;32;34750;-64
2023/10/23 01:39:34;;;;;;;1.05;0.70;;;;;;;15.38;60.84;99576.28;4405254;32;36043;-64
2023/10/23 01:42:01;;;;;;;1.20;0.62;;;;;;;15.34;60.83;99579.41;4405463;32;33884;-64
2023/10/23 01:44:29;;;;;;;1.10;0.68;;;;;;;15.41;60.68;99580.53;4405505;32;33697;-64
2023/10/23 01:46:56;;;;;;;0.62;0.45;;;;;;;15.49;60.41;99577.94;4406510;32;33721;-64
2023/10/23 01:49:25;;;;;;;0.40;0.40;;;;;;;15.51;60.39;99575.09;4406698;32;33707;-64
2023/10/23 01:51:52;;;;;;;2.95;1.42;;;;;;;15.57;60.28;99567.25;4405964;32;33926;-66
2023/10/23 01:54:20;;;;;;;0.70;0.57;;;;;;;15.60;60.16;99563.38;4405813;32;34756;-66
2023/10/23 01:56:48;;;;;;;1.30;0.73;;;;;;;15.68;60.03;99573.47;4403995;32;33928;-66
2023/10/23 01:59:16;;;;;;;15.18;1.05;;;;;;;15.75;59.62;99569.16;4405589;32;33968;-66
2023/10/23 02:01:44;;;;;;;0.40;0.40;;;;;;;15.77;59.29;99564.47;4404560;32;33813;-66
2023/10/23 02:04:12;;;;;;;1.45;0.62;;;;;;;15.77;58.99;99572.56;4406986;32;32886;-65
2023/10/23 02:06:39;;;;;;;4.45;0.82;;;;;;;15.72;58.97;99575.69;4405678;32;33413;-66
2023/10/23 02:09:08;;;;;;;0.77;0.77;;;;;;;15.75;58.88;99577.25;4406588;32;35565;-66
2023/10/23 02:11:35;;;;;;;2.87;1.45;;;;;;;15.79;58.55;99576.81;4403759;32;33885;-66
2023/10/23 02:14:04;;;;;;;3.42;1.40;;;;;;;15.72;58.87;99574.84;4403454;32;34609;-66
2023/10/23 02:16:31;;;;;;;1.55;0.80;;;;;;;15.68;58.92;99566.22;4406090;32;33821;-66
2023/10/23 02:18:59;;;;;;;0.50;0.50;;;;;;;15.74;58.87;99570.16;4406460;32;34731;-66
2023/10/23 02:21:27;;;;;;;0.77;0.55;;;;;;;15.72;58.73;99564.91;4404875;32;34333;-65
2023/10/23 02:23:55;;;;;;;1.55;0.80;;;;;;;15.73;58.34;99571.12;4405014;32;34347;-65
2023/10/23 02:26:24;;;;;;;0.62;0.62;;;;;;;15.72;58.47;99574.84;4406413;32;34648;-66
2023/10/23 02:28:52;;;;;;;0.40;0.40;;;;;;;15.66;58.54;99575.41;4405276;32;35283;-66
2023/10/23 02:31:19;;;;;;;6.85;1.17;;;;;;;15.66;58.38;99570.03;4405425;32;33829;-65
2023/10/23 02:33:47;;;;;;;4.53;1.67;;;;;;;15.58;58.50;99568.09;4406677;32;33549;-65
2023/10/23 02:36:15;;;;;;;0.95;0.60;;;;;;;15.36;58.97;99570.19;4405673;32;33971;-66
2023/10/23 02:38:43;;;;;;;0.40;0.40;;;;;;;15.20;59.60;99574.53;4392735;32;34017;-66
2023/10/23 02:41:10;;;;;;;0.45;0.45;;;;;;;15.26;59.11;99579.34;4406265;32;33923;-66
2023/10/23 02:43:38;;;;;;;0.40;0.40;;;;;;;15.32;58.78;99587.66;4404088;32;33389;-66
2023/10/23 02:46:06;;;;;;;1.55;0.95;;;;;;;15.25;58.82;99578.47;4402878;32;33910;-66
2023/10/23 02:48:34;;;;;;;1.55;0.82;;;;;;;14.86;60.24;99578.62;4401998;32;33749;-66
2023/10/23 02:51:02;;;;;;;0.77;0.60;;;;;;;14.98;60.12;99578.44;4406365;32;35771;-66
2023/10/23 02:53:30;;;;;;;0.35;0.35;;;;;;;15.10;59.46;99583.50;4405979;32;33460;-66
2023/10/23 02:55:57;;;;;;;3.53;1.40;;;;;;;15.15;59.25;99585.75;4405415;32;33600;-66
2023/10/23 02:58:25;;;;;;;0.55;0.55;;;;;;;15.08;59.45;99584.63;4405678;32;34934;-65
2023/10/23 03:01:13;;;;;;;0.40;0.30;;;;;;;15.06;59.66;99581.25;4601614;27;34167;-69
2023/10/23 03:03:43;;;;;;;0.50;0.50;;;;;;;15.14;59.60;99581.34;4376986;32;33209;-66
2023/10/23 03:06:18;;;;;;;0.85;0.52;;;;;;;15.08;59.67;99592.72;4392813;32;33242;-67
2023/10/23 03:08:46;;;;;;;1.83;1.08;;;;;;;15.12;59.21;99591.44;4389833;32;34208;-67
2023/10/23 03:11:14;;;;;;;0.30;0.30;;;;;;;15.19;58.79;99597.94;4388204;32;33927;-67
2023/10/23 03:13:41;;;;;;;1.08;0.57;;;;;;;15.11;59.31;99597.81;4385075;32;33113;-67
2023/10/23 03:16:14;;;;;;;2.45;1.17;;;;;;;14.94;59.97;99595.91;4387985;32;33891;-67
2023/10/23 03:18:42;;;;;;;2.05;1.20;;;;;;;15.00;59.90;99598.00;4366132;32;33479;-68
2023/10/23 03:21:10;;;;;;;0.43;0.43;;;;;;;14.97;60.07;99595.63;4381064;32;34869;-68
2023/10/23 03:23:37;;;;;;;0.73;0.50;;;;;;;15.03;60.11;99593.19;4376832;32;34350;-67
2023/10/23 03:26:05;;;;;;;1.52;1.20;;;;;;;15.10;60.04;99594.28;4374219;32;33668;-67
2023/10/23 03:28:46;;;;;;;0.47;0.47;;;;;;;15.21;60.21;99595.09;4373973;32;34307;-67
2023/10/23 03:31:14;;;;;;;0.40;0.40;;;;;;;15.30;59.88;99594.19;4374297;32;34111;-68
2023/10/23 03:33:52;;;;;;;0.60;0.55;;;;;;;15.10;60.01;99602.38;4374253;32;34749;-67
2023/10/23 03:36:26;;;;;;;0.37;0.37;;;;;;;15.13;59.88;99603.94;4373966;32;33858;-67
2023/10/23 03:38:56;;;;;;;1.20;0.75;;;;;;;15.23;59.55;99599.34;4380734;32;32550;-67
2023/10/23 03:44:12;;;;;;;1.58;1.17;;;;;;;15.23;59.38;99602.03;4370905;32;32991;-67
2023/10/23 03:46:40;;;;;;;0.40;0.40;;;;;;;14.91;60.31;99605.97;4373877;32;33939;-67
2023/10/23 03:49:20;;;;;;;0.95;0.73;;;;;;;15.09;59.61;99599.84;4378117;32;33820;-67
2023/10/23 03:52:01;;;;;;;2.60;1.48;;;;;;;15.03;59.86;99603.13;4389349;32;34178;-67
2023/10/23 03:54:29;;;;;;;3.12;1.25;;;;;;;15.05;59.62;99601.94;4390732;32;33333;-67
2023/10/23 03:56:57;;;;;;;0.95;0.73;;;;;;;15.07;59.47;99605.34;4387485;32;33793;-67
2023/10/23 03:59:24;;;;;;;0.52;0.47;;;;;;;15.08;59.43;99604.34;4390750;32;33796;-67
2023/10/23 04:01:52;;;;;;;0.35;0.35;;;;;;;15.14;58.92;99606.47;4384403;32;34182;-69
2023/10/23 04:04:20;;;;;;;1.67;0.85;;;;;;;15.18;58.75;99609.72;4388328;32;34403;-69
2023/10/23 04:06:47;;;;;;;1.77;0.60;;;;;;;15.20;58.74;99614.97;4389785;32;33713;-70
2023/10/23 04:09:15;;;;;;;0.62;0.62;;;;;;;15.20;58.88;99613.13;4389902;32;34477;-70
2023/10/23 04:11:43;;;;;;;1.23;0.60;;;;;;;15.18;59.14;99622.34;4384988;32;34869;-70
2023/10/23 04:14:10;;;;;;;0.73;0.73;;;;;;;15.26;58.85;99620.63;4382416;32;33642;-70
2023/10/23 04:16:39;;;;;;;1.00;0.60;;;;;;;15.11;59.23;99622.94;4387219;32;33750;-70
2023/10/23 04:19:07;;;;;;;1.55;1.10;;;;;;;15.15;59.42;99623.47;4389686;32;33886;-70
2023/10/23 04:21:39;;;;;;;0.88;0.57;;;;;;;14.99;59.63;99620.56;4380654;32;33935;-70
2023/10/23 04:24:09;;;;;;;0.60;0.60;;;;;;;15.10;59.25;99631.19;4391038;32;33318;-70
2023/10/23 04:26:36;;;;;;;3.12;0.68;;;;;;;15.00;59.54;99639.28;4388742;32;33819;-70
2023/10/23 04:29:05;;;;;;;2.33;0.73;;;;;;;15.07;59.04;99639.56;4391137;32;34319;-70
2023/10/23 04:31:32;;;;;;;1.45;0.80;;;;;;;15.10;58.88;99639.25;4388926;32;34190;-70
2023/10/23 04:34:00;;;;;;;0.80;0.65;;;;;;;14.84;59.55;99636.34;4390996;32;33276;-70
2023/10/23 04:36:28;;;;;;;0.47;0.47;;;;;;;14.77;60.04;99630.69;4389756;32;34646;-69
2023/10/23 04:38:55;;;;;;;0.50;0.50;;;;;;;14.81;59.96;99636.63;4385221;32;35120;-70
2023/10/23 04:41:23;;;;;;;0.55;0.55;;;;;;;14.92;59.78;99628.37;4388851;32;35478;-70
2023/10/23 04:43:50;;;;;;;1.87;0.68;;;;;;;15.04;59.83;99632.59;4388679;32;33558;-70
2023/10/23 04:46:18;;;;;;;1.15;0.75;;;;;;;15.11;59.79;99639.09;4389962;32;33761;-70
2023/10/23 04:48:46;;;;;;;0.50;0.50;;;;;;;15.12;59.39;99638.13;4390517;32;33576;-70
2023/10/23 04:51:14;;;;;;;0.60;0.60;;;;;;;15.11;59.26;99639.09;4386703;32;34357;-68
2023/10/23 04:53:41;;;;;;;1.00;0.60;;;;;;;15.06;59.47;99640.56;4389754;32;34618;-68
2023/10/23 04:56:09;;;;;;;0.85;0.70;;;;;;;14.83;60.25;99640.00;4389655;32;33728;-68
2023/10/23 04:58:38;;;;;;;0.62;0.62;;;;;;;14.89;60.18;99645.69;4389746;32;33911;-63
2023/10/23 05:01:15;;;;;;;0.50;0.50;;;;;;;14.94;59.85;99642.56;4385101;32;34045;-68
2023/10/23 05:03:42;;;;;;;1.05;0.75;;;;;;;15.02;59.37;99637.28;4391187;32;33547;-68
2023/10/23 05:06:10;;;;;;;6.03;1.15;;;;;;;14.99;59.63;99639.41;4393244;32;33848;-68
2023/10/23 05:08:37;;;;;;;1.12;0.60;;;;;;;14.99;59.54;99629.50;4391358;32;33864;-67
2023/10/23 05:11:08;;;;;;;0.40;0.40;;;;;;;15.03;59.46;99633.59;4390012;32;34292;-68
2023/10/23 05:13:36;;;;;;;1.48;0.90;;;;;;;14.97;59.69;99639.56;4390105;32;33698;-68
2023/10/23 05:16:07;;;;;;;0.90;0.60;;;;;;;14.95;59.92;99641.56;4379132;32;34405;-68
2023/10/23 05:18:34;;;;;;;1.10;0.85;;;;;;;14.96;59.91;99637.88;4386122;32;35348;-67
2023/10/23 05:21:12;;;;;;;0.65;0.60;;;;;;;14.93;60.14;99638.19;4390796;32;33746;-68
2023/10/23 05:23:40;;;;;;;0.60;0.60;;;;;;;14.86;60.15;99637.03;4388809;32;33740;-67
2023/10/23 05:26:10;;;;;;;0.45;0.45;;;;;;;14.83;60.50;99640.88;4390552;32;33712;-68
2023/10/23 05:28:40;;;;;;;0.50;0.50;;;;;;;14.79;60.55;99633.22;4390037;32;33762;-68
2023/10/23 05:31:09;;;;;;;1.15;0.85;;;;;;;14.85;60.37;99627.25;4386199;32;33742;-69
2023/10/23 05:33:37;;;;;;;12.35;0.77;;;;;;;14.93;60.24;99635.47;4380248;32;34387;-68
2023/10/23 05:36:06;;;;;;;1.77;0.95;;;;;;;15.02;59.81;99645.38;4381504;32;33802;-69
2023/10/23 05:38:35;;;;;;;0.62;0.50;;;;;;;14.88;60.50;99652.06;4384231;32;35383;-72
2023/10/23 05:41:03;;;;;;;1.27;0.70;;;;;;;15.00;60.02;99655.47;4349455;32;33629;-69
2023/10/23 05:43:30;;;;;;;0.57;0.55;;;;;;;15.00;60.09;99660.84;4349152;32;34410;-70
2023/10/23 05:46:02;;;;;;;1.30;0.45;;;;;;;14.78;60.81;99663.88;4357210;32;34487;-69
2023/10/23 05:48:30;;;;;;;0.30;0.30;;;;;;;14.89;60.67;99661.88;4322698;33;35340;-69
2023/10/23 05:51:06;;;;;;;2.45;1.10;;;;;;;14.89;60.86;99667.25;4330585;33;33944;-69
2023/10/23 05:53:34;;;;;;;0.77;0.77;;;;;;;14.93;60.79;99672.34;4343070;33;33276;-70
2023/10/23 05:56:03;;;;;;;0.45;0.40;;;;;;;14.96;60.90;99670.22;4329413;33;35274;-69
2023/10/23 05:58:32;;;;;;;1.08;0.70;;;;;;;15.11;60.46;99673.28;4330614;32;33958;-69
2023/10/23 06:01:07;;;;;;;0.57;0.57;;;;;;;15.10;60.61;99674.31;4330322;33;33605;-69
2023/10/23 06:03:35;;;;;;;;;;;;;;;15.14;60.67;99679.25;4320785;33;34303;-69
2023/10/23 06:06:03;;;;;;;1.60;1.37;;;;;;;15.26;60.51;99677.25;4319028;33;33921;-69
2023/10/23 06:08:31;;;;;;;2.28;0.75;;;;;;;15.40;60.35;99675.06;4301245;33;33953;-69
2023/10/23 06:10:59;;;;;;;0.75;0.60;;;;;;;15.48;60.08;99691.38;4302804;33;33939;-69
2023/10/23 06:13:27;;;;;;;0.50;0.50;;;;;;;15.55;59.99;99687.94;4312281;33;34663;-70
2023/10/23 06:16:02;;;;;;;2.40;1.02;;;;;;;15.61;59.87;99690.03;4312119;33;33716;-70
2023/10/23 06:18:34;;;;;;;1.35;0.80;;;;;;;15.74;59.95;99694.28;4314076;33;33913;-70
2023/10/23 06:21:06;;;;;;;0.40;0.40;;;;;;;15.89;59.81;99694.63;4326312;33;31925;-71
2023/10/23 06:23:38;;;;;;;0.75;0.52;;;;;;;15.95;59.77;99691.31;4326845;33;34286;-70
2023/10/23 06:26:07;;;;;;;1.30;0.68;;;;;;;16.03;59.73;99694.97;4327603;33;33611;-70
2023/10/23 06:28:35;;;;;;;0.93;0.60;;;;;;;16.12;59.46;99690.53;4327889;33;34085;-69
2023/10/23 06:31:07;;;;;;;6.00;1.90;;;;;;;16.28;58.79;99703.37;4329387;33;33911;-69
2023/10/23 06:33:36;;;;;;;5.45;2.97;;;;;;;16.34;58.63;99696.47;4331685;33;33459;-70
2023/10/23 06:36:04;;;;;;;3.15;1.75;;;;;;;16.47;58.43;99696.97;4329772;33;35035;-70
2023/10/23 06:38:31;;;;;;;3.78;1.65;;;;;;;16.49;58.46;99703.91;4333099;33;35485;-70
2023/10/23 06:41:04;;;;;;;0.50;0.50;;;;;;;16.60;58.14;99708.25;4341974;32;33958;-70
2023/10/23 06:43:33;;;;;;;3.58;1.85;;;;;;;16.66;58.23;99706.75;4343331;32;34458;-70
2023/10/23 06:46:00;;;;;;;3.40;2.17;;;;;;;16.72;58.13;99706.97;4363765;32;34379;-71
2023/10/23 06:48:30;;;;;;;2.50;1.55;;;;;;;16.82;58.34;99696.16;4390722;32;35043;-71
2023/10/23 06:50:59;;;;;;;2.05;1.17;;;;;;;16.93;58.34;99693.19;4387532;32;34715;-71
2023/10/23 06:53:27;;;;;;;1.25;0.90;;;;;;;17.05;58.23;99703.78;4389857;32;33524;-71
2023/10/23 06:55:55;;;;;;;4.55;2.37;;;;;;;17.07;58.31;99693.63;4377284;32;33887;-72
2023/10/23 06:58:23;;;;;;;2.30;1.55;;;;;;;17.12;58.27;99691.31;4383743;32;34119;-74
2023/10/23 07:00:51;;;;;;;2.67;1.87;;;;;;;17.01;58.61;99689.69;4386366;32;33971;-70
2023/10/23 07:03:18;;;;;;;4.03;1.90;;;;;;;17.12;58.63;99702.97;4378840;32;119714;-72
2023/10/23 07:05:47;;;;;;;3.75;1.65;;;;;;;17.13;58.48;99701.94;4390614;32;34556;-69
2023/10/23 07:08:14;;;;;;;3.53;2.05;;;;;;;17.22;58.62;99700.16;4389566;32;33897;-71
2023/10/23 07:10:42;;;;;;;5.78;2.47;;;;;;;17.23;58.79;99710.81;4391270;32;35098;-72
2023/10/23 07:13:09;;;;;;;5.45;2.53;;;;;;;17.17;58.58;99710.59;4392543;32;33663;-73
2023/10/23 07:15:49;;;;;;;3.87;2.30;;;;;;;17.04;58.81;99702.03;4390363;32;33935;-70
2023/10/23 07:18:18;;;;;;;4.93;2.25;;;;;;;17.15;58.58;99708.06;4376693;32;34285;-70
2023/10/23 07:20:58;;;;;;;4.15;2.22;;;;;;;17.16;58.91;99704.34;4387435;32;35268;-72
2023/10/23 07:23:26;;;;;;;6.95;4.15;;;;;;;17.23;58.52;99701.84;4389221;32;33287;-73
2023/10/23 07:26:01;;;;;;;5.45;3.20;;;;;;;17.29;57.88;99705.78;4388897;32;33516;-71
2023/10/23 07:28:29;;;;;;;4.43;2.53;;;;;;;17.29;58.40;99714.75;4385579;32;35633;-71
2023/10/23 07:30:57;;;;;;;6.93;2.47;;;;;;;17.52;57.97;99706.94;4385031;32;34073;-71
2023/10/23 07:33:24;;;;;;;4.87;2.92;;;;;;;17.24;59.08;99722.50;4387771;32;33620;-72
2023/10/23 07:36:04;;;;;;;5.55;3.12;;;;;;;17.64;58.22;99721.06;4390184;32;33539;-71
2023/10/23 07:38:32;;;;;;;6.15;3.30;;;;;;;17.15;59.18;99712.63;4387719;32;34033;-70
2023/10/23 07:41:00;;;;;;;6.20;3.22;;;;;;;17.37;58.84;99706.69;4387956;32;34064;-70
2023/10/23 07:43:29;;;;;;;4.00;2.78;;;;;;;17.44;59.07;99718.56;4384946;32;33562;-70
2023/10/23 07:45:57;;;;;;;9.48;3.45;;;;;;;17.61;58.15;99721.38;4389046;32;33573;-71
2023/10/23 07:48:27;;;;;;;6.10;3.00;;;;;;;17.57;58.65;99728.13;4388045;32;34018;-70
2023/10/23 07:50:57;;;;;;;6.62;3.05;;;;;;;17.73;58.64;99727.37;4385892;32;34067;-69
2023/10/23 07:53:26;;;;;;;6.43;2.42;;;;;;;18.95;55.62;99725.06;4386177;32;33771;-69
2023/10/23 07:55:54;;;;;;;5.95;3.50;;;;;;;19.29;54.66;99726.72;4337828;32;33583;-70
2023/10/23 07:58:22;;;;;;;5.80;3.97;;;;;;;19.45;54.12;99726.69;4338412;32;33953;-70
2023/10/23 08:00:53;;;;;;;4.00;2.85;;;;;;;19.40;54.28;99725.53;4335822;32;34101;-71
2023/10/23 08:03:22;;;;;;;6.07;3.17;;;;;;;19.29;54.79;99726.72;4338917;33;34020;-69
2023/10/23 08:05:50;;;;;;;6.70;3.70;;;;;;;18.96;55.69;99724.03;4341588;33;33624;-70
2023/10/23 08:08:18;;;;;;;8.13;4.12;;;;;;;19.12;55.61;99717.75;4340709;32;35653;-70
2023/10/23 08:10:46;;;;;;;7.50;4.87;;;;;;;19.07;55.96;99714.72;4339610;32;32459;-69
2023/10/23 08:13:13;;;;;;;7.03;4.43;;;;;;;18.99;55.90;99718.28;4339340;32;34103;-70
2023/10/23 08:15:43;;;;;;;8.27;4.78;;;;;;;18.38;57.94;99712.22;4337228;33;33300;-71
2023/10/23 08:18:10;;;;;;;7.32;3.75;;;;;;;18.45;57.49;99711.56;4342572;32;33824;-70
2023/10/23 08:20:58;;;;;;;8.10;5.12;;;;;;;18.44;58.21;99708.03;4341939;33;33960;-70
2023/10/23 08:23:26;;;;;;;6.53;3.80;;;;;;;18.22;59.07;99714.06;4329186;33;33502;-71
2023/10/23 08:25:53;;;;;;;6.65;4.30;;;;;;;18.02;60.11;99708.06;4336200;32;34739;-71
2023/10/23 08:28:21;;;;;;;5.93;3.80;;;;;;;18.61;58.54;99712.44;4383186;32;35015;-71
2023/10/23 08:30:49;;;;;;;8.25;4.22;;;;;;;18.95;56.79;99714.22;4388547;32;34228;-69
2023/10/23 08:33:17;;;;;;;8.27;4.43;;;;;;;17.87;60.14;99708.69;4394706;32;33945;-70
2023/10/23 08:35:44;;;;;;;10.73;4.68;;;;;;;18.36;58.34;99705.28;4382543;32;34911;-69
2023/10/23 08:38:12;;;;;;;7.65;3.95;;;;;;;18.60;57.62;99709.91;4388112;32;34127;-69
2023/10/23 08:40:40;;;;;;;9.68;5.00;;;;;;;18.70;57.17;99701.63;4389421;32;34222;-69
2023/10/23 08:43:08;;;;;;;5.97;3.47;;;;;;;18.49;58.38;99705.69;4388135;32;33452;-69
2023/10/23 08:45:36;;;;;;;5.62;2.78;;;;;;;18.72;57.05;99703.19;4389404;32;33466;-71
2023/10/23 08:48:04;;;;;;;6.05;3.55;;;;;;;18.74;56.73;99700.28;4370098;32;33957;-72
2023/10/23 08:50:32;;;;;;;10.20;4.45;;;;;;;18.48;56.92;99695.81;4388540;32;33895;-72
2023/10/23 08:53:05;;;;;;;4.25;2.95;;;;;;;18.45;56.47;99696.16;4377166;32;34365;-70
2023/10/23 08:55:34;;;;;;;6.57;3.70;;;;;;;18.68;56.22;99693.66;4390716;32;35009;-71
2023/10/23 08:58:04;;;;;;;6.97;3.85;;;;;;;18.85;55.15;99695.41;4355187;32;34046;-70
2023/10/23 09:00:31;;;;;;;4.87;2.87;;;;;;;18.90;53.90;99711.16;4351771;32;33951;-70
2023/10/23 09:02:59;;;;;;;7.55;3.08;;;;;;;18.98;53.68;99697.59;4347847;32;33344;-72
2023/10/23 09:05:27;;;;;;;9.02;4.22;;;;;;;18.97;53.60;99700.47;4345565;32;33663;-72
2023/10/23 09:07:55;;;;;;;6.68;3.53;;;;;;;19.05;53.10;99703.19;4358394;32;34096;-70
2023/10/23 09:10:23;;;;;;;3.80;2.22;;;;;;;19.03;52.51;99705.22;4344690;33;34224;-70
2023/10/23 09:12:55;;;;;;;4.80;2.33;;;;;;;19.22;50.00;99704.84;4356737;32;33155;-71
2023/10/23 09:15:26;;;;;;;10.27;3.83;;;;;;;19.17;50.15;99707.25;4350578;32;33796;-70
2023/10/23 09:17:57;;;;;;;6.95;2.65;;;;;;;19.31;49.65;99701.13;4348664;32;35170;-70
2023/10/23 09:20:26;;;;;;;5.45;3.10;;;;;;;19.41;49.40;99710.94;4357418;32;33825;-70
2023/10/23 09:22:55;;;;;;;3.85;2.00;;;;;;;19.35;49.97;99709.75;4351664;32;33323;-71
2023/10/23 09:25:24;;;;;;;3.67;2.05;;;;;;;19.51;48.46;99704.28;4357454;32;34986;-68
2023/10/23 09:27:54;;;;;;;5.53;2.80;;;;;;;19.44;48.77;99702.47;4355736;32;35135;-67
2023/10/23 09:30:22;;;;;;;7.70;2.95;;;;;;;19.39;49.08;99699.41;4389833;32;35249;-68
2023/10/23 09:32:51;;;;;;;5.50;2.42;;;;;;;19.38;49.86;99708.56;4385472;32;33345;-67
2023/10/23 09:35:20;;;;;;;5.28;2.75;;;;;;;19.32;49.79;99696.53;4391034;32;33618;-67
2023/10/23 09:37:48;;;;;;;7.47;2.72;;;;;;;19.33;49.46;99702.84;4390005;32;34213;-67
2023/10/23 09:40:19;;;;;;;4.50;1.98;;;;;;;18.94;49.97;99696.25;4385570;32;34887;-67
2023/10/23 09:42:46;;;;;;;3.87;1.25;;;;;;;19.27;48.29;99698.94;4385482;32;34881;-68
2023/10/23 09:45:15;;;;;;;6.18;2.12;;;;;;;19.73;47.58;99697.31;4379402;32;33694;-68
2023/10/23 09:47:45;;;;;;;4.47;1.85;;;;;;;19.47;48.97;99699.41;4375300;32;35064;-68
2023/10/23 09:50:13;;;;;;;3.25;2.00;;;;;;;19.60;50.33;99701.56;4387373;32;33273;-68
2023/10/23 09:52:43;;;;;;;3.45;1.70;;;;;;;19.65;47.80;99700.06;4388922;32;34412;-68
2023/10/23 09:55:11;;;;;;;5.32;2.10;;;;;;;19.99;47.46;99704.34;4386911;32;33564;-67
2023/10/23 09:57:40;;;;;;;5.68;1.83;;;;;;;19.82;48.45;99705.44;4376283;32;35089;-68
2023/10/23 10:00:13;;;;;;;4.32;1.92;;;;;;;19.93;47.66;99703.19;4387573;32;33623;-67
2023/10/23 10:02:48;;;;;;;2.67;1.23;;;;;;;20.34;47.80;99694.84;4389103;32;33336;-67
2023/10/23 10:05:18;;;;;;;5.28;1.85;;;;;;;20.18;48.07;99695.75;4388838;32;34617;-71
2023/10/23 10:08:02;;;;;;;3.45;1.65;;;;;;;19.99;48.21;99694.31;4380492;32;34373;-68
2023/10/23 10:10:32;;;;;;;6.18;2.08;;;;;;;20.51;47.23;99678.41;4384782;32;34912;-70
2023/10/23 10:13:02;;;;;;;3.87;2.12;;;;;;;20.45;46.48;99688.16;4382962;32;33362;-69
2023/10/23 10:15:31;;;;;;;4.22;1.95;;;;;;;20.44;46.67;99690.00;4387761;32;33851;-70
2023/10/23 10:17:59;;;;;;;3.37;2.17;;;;;;;20.52;46.96;99685.59;4390700;32;34535;-70
2023/10/23 10:20:27;;;;;;;4.82;2.35;;;;;;;20.37;47.34;99686.31;4388566;32;33657;-69
2023/10/23 10:23:11;;;;;;;3.92;2.03;;;;;;;20.19;48.48;99688.44;4390154;32;34467;-71
2023/10/23 10:25:40;;;;;;;4.95;2.12;;;;;;;20.26;48.18;99686.75;4369702;32;33796;-70
2023/10/23 10:28:08;;;;;;;4.00;1.75;;;;;;;20.47;47.78;99684.22;4376083;32;35015;-69
2023/10/23 10:30:46;;;;;;;3.25;1.85;;;;;;;20.50;48.16;99683.00;4391061;32;35244;-70
2023/10/23 10:33:19;;;;;;;2.75;1.00;;;;;;;20.59;48.24;99679.25;4388385;32;34089;-70
2023/10/23 10:36:10;;;;;;;5.55;2.12;;;;;;;20.69;48.16;99679.00;4390256;32;33916;-69
2023/10/23 10:38:38;;;;;;;3.47;1.60;;;;;;;20.92;47.42;99674.38;4388192;32;35230;-71
2023/10/23 10:41:14;;;;;;;2.97;1.73;;;;;;;21.16;46.59;99662.44;4391783;32;34046;-70
2023/10/23 10:43:43;;;;;;;5.70;1.42;;;;;;;20.97;47.02;99673.84;4356258;32;33515;-70
2023/10/23 10:46:15;;;;;;;5.37;1.95;;;;;;;21.17;46.23;99660.56;4345049;32;33843;-71
2023/10/23 10:48:45;;;;;;;4.22;1.73;;;;;;;20.78;47.22;99664.31;4357418;32;33900;-70
2023/10/23 10:51:24;;;;;;;4.65;2.05;;;;;;;20.74;47.63;99663.00;4374314;32;33888;-69
2023/10/23 10:54:10;;;;;;;5.68;1.90;;;;;;;20.70;47.60;99669.81;4327370;33;33474;-69
2023/10/23 10:56:38;;;;;;;4.97;1.77;;;;;;;20.66;48.03;99663.03;4327063;33;33936;-69
2023/10/23 10:59:06;;;;;;;2.67;1.73;;;;;;;20.73;47.90;99666.72;4330124;33;35066;-70
2023/10/23 11:01:33;;;;;;;2.90;1.50;;;;;;;20.48;48.54;99664.19;4330546;33;33915;-69
2023/10/23 11:04:01;;;;;;;3.37;1.87;;;;;;;20.83;47.46;99661.03;4335957;33;33591;-69
2023/10/23 11:06:29;;;;;;;2.83;1.00;;;;;;;20.36;48.93;99664.75;4342894;33;33490;-69
2023/10/23 11:08:58;;;;;;;1.60;1.00;;;;;;;19.93;49.94;99665.16;4335280;33;33916;-69
2023/10/23 11:11:27;;;;;;;1.50;0.88;;;;;;;20.45;48.58;99660.97;4344563;33;33826;-72
2023/10/23 11:13:58;;;;;;;2.97;1.73;;;;;;;20.90;48.55;99659.28;4343613;32;33421;-72
2023/10/23 11:16:30;;;;;;;3.42;1.12;;;;;;;20.77;48.77;99662.62;4354062;32;34842;-71
2023/10/23 11:18:58;;;;;;;3.30;1.58;;;;;;;21.13;47.71;99656.53;4355887;32;33735;-70
2023/10/23 11:21:25;;;;;;;4.53;0.90;;;;;;;21.02;48.23;99665.13;4348017;32;35276;-70
2023/10/23 11:23:55;;;;;;;2.78;1.60;;;;;;;21.07;48.70;99659.97;4357879;32;33218;-70
2023/10/23 11:26:25;;;;;;;1.45;0.85;;;;;;;21.23;47.79;99651.66;4386685;32;33990;-69
2023/10/23 11:28:53;;;;;;;4.03;1.25;;;;;;;21.55;47.33;99639.59;4384738;32;34984;-70
2023/10/23 11:31:21;;;;;;;2.45;1.08;;;;;;;21.39;48.03;99640.63;4381357;32;32894;-69
2023/10/23 11:33:55;;;;;;;2.15;1.30;;;;;;;20.92;49.39;99630.00;4388296;32;33420;-69
2023/10/23 11:36:27;;;;;;;7.18;2.53;;;;;;;21.08;50.17;99640.75;4388524;32;33544;-70
2023/10/23 11:38:56;;;;;;;2.72;1.50;;;;;;;21.14;49.11;99629.13;4388770;32;35214;-72
2023/10/23 11:41:27;;;;;;;4.53;1.35;;;;;;;21.19;49.31;99628.56;4349766;32;34746;-69
2023/10/23 11:44:03;;;;;;;5.12;1.80;;;;;;;21.60;48.28;99620.81;4324423;33;34255;-70
2023/10/23 11:46:31;;;;;;;2.65;1.30;;;;;;;21.56;48.73;99614.03;4341874;32;34045;-69